PWSweather.com
Personal Weather Stations
Station Observations
IBRABANT12
Leuven, BlandenBE 3052

LeuvenBlandenBE 3052

Lat: 50.8252218, Lon: 4.709682799999996

Elevation: 193

Station Type: Davis Vantage Vue

http://www.weerstationblanden.be

Latest ConditionsUpdated 11:10:03 PM GMT+01:01 Sunday, Aug 2, 2015
Currently Today's Max Today's Min Today's Average
Temperature 63.3°F17.4°C 81.1°F27.3°C 47.8°F8.8°C 64.6°F18.1°C
Dew Point 56.3°F13.5°C 56.3°F13.5°C 45.8°F7.7°C 51.3°F10.7°C
Winds 0.3 mph ESE0.5 kmh ESE 6.1 mph SW9.8 kmh SW - 1.1 mph 1.8 kmh
Wind Gusts -- 8.0 mph12.9 kmh - -
Humidity 78% 94% 32% 67%
Pressure 29.94 in1013.9 mb 30.09 in1019.0 mb 29.94 in1013.9 mb -
Hour Temp Dew Point Humidity Winds Wind Gusts Pressure Precip Precip Rate Daily Precip Total
11:10 PM 63.3°F17.4°C 56.3°F13.5°C 78% 0.3 mph ESE0.5 kmh ESE -- 29.94 in1013.9 mb - 0.00 in0.0 mm 0.00 in0.0 mm
11:00 PM 63.9°F17.7°C 56.2°F13.4°C 76% 0.3 mph ESE0.5 kmh ESE 1.0 mph1.6 kmh 29.94 in1013.9 mb - 0.00 in0.0 mm 0.00 in0.0 mm
10:50 PM 64.3°F17.9°C 56.2°F13.4°C 75% Calm Calm -- 29.94 in1013.9 mb - 0.00 in0.0 mm 0.00 in0.0 mm
10:40 PM 64.9°F18.3°C 56.0°F13.3°C 73% Calm Calm -- 29.95 in1014.2 mb - 0.00 in0.0 mm 0.00 in0.0 mm
10:30 PM 65.1°F18.4°C 55.8°F13.2°C 72% Calm Calm -- 29.95 in1014.2 mb - 0.00 in0.0 mm 0.00 in0.0 mm
10:20 PM 65.8°F18.8°C 55.8°F13.2°C 70% Calm Calm -- 29.95 in1014.2 mb - 0.00 in0.0 mm 0.00 in0.0 mm
10:10 PM 67.4°F19.7°C 55.7°F13.2°C 66% Calm Calm 1.0 mph1.6 kmh 29.95 in1014.2 mb - 0.00 in0.0 mm 0.00 in0.0 mm
10:00 PM 69.1°F20.6°C 55.6°F13.1°C 62% Calm Calm -- 29.95 in1014.2 mb - 0.00 in0.0 mm 0.00 in0.0 mm
09:50 PM 69.8°F21.0°C 54.8°F12.7°C 59% 0.8 mph ESE1.3 kmh ESE 3.0 mph4.8 kmh 29.95 in1014.2 mb - 0.00 in0.0 mm 0.00 in0.0 mm
09:40 PM 70.3°F21.3°C 54.8°F12.7°C 58% 0.8 mph E1.3 kmh E 1.0 mph1.6 kmh 29.95 in1014.2 mb - 0.00 in0.0 mm 0.00 in0.0 mm
09:30 PM 70.7°F21.5°C 54.7°F12.6°C 57% 0.7 mph E1.1 kmh E 1.0 mph1.6 kmh 29.95 in1014.2 mb - 0.00 in0.0 mm 0.00 in0.0 mm
09:20 PM 70.9°F21.6°C 54.4°F12.4°C 56% 1.4 mph ESE2.3 kmh ESE 2.0 mph3.2 kmh 29.95 in1014.2 mb - 0.00 in0.0 mm 0.00 in0.0 mm
09:10 PM 70.7°F21.5°C 54.2°F12.3°C 56% 1.0 mph E1.6 kmh E 2.0 mph3.2 kmh 29.95 in1014.2 mb - 0.00 in0.0 mm 0.00 in0.0 mm
09:00 PM 70.4°F21.3°C 54.5°F12.5°C 57% 1.3 mph E2.1 kmh E 2.0 mph3.2 kmh 29.95 in1014.2 mb - 0.00 in0.0 mm 0.00 in0.0 mm
08:50 PM 69.8°F21.0°C 54.8°F12.7°C 59% 1.3 mph ESE2.1 kmh ESE 2.0 mph3.2 kmh 29.95 in1014.2 mb - 0.00 in0.0 mm 0.00 in0.0 mm
08:40 PM 70.4°F21.3°C 55.4°F13.0°C 59% Calm Calm -- 29.95 in1014.2 mb - 0.00 in0.0 mm 0.00 in0.0 mm
08:30 PM 71.6°F22.0°C 55.5°F13.1°C 57% Calm Calm -- 29.95 in1014.2 mb - 0.00 in0.0 mm 0.00 in0.0 mm
08:20 PM 73.2°F22.9°C 55.6°F13.1°C 54% Calm Calm -- 29.95 in1014.2 mb - 0.00 in0.0 mm 0.00 in0.0 mm
08:10 PM 74.9°F23.8°C 55.0°F12.8°C 50% 0.8 mph ESE1.3 kmh ESE 1.0 mph1.6 kmh 29.95 in1014.2 mb - 0.00 in0.0 mm 0.00 in0.0 mm
08:00 PM 75.5°F24.2°C 53.8°F12.1°C 47% Calm Calm -- 29.95 in1014.2 mb - 0.00 in0.0 mm 0.00 in0.0 mm
07:50 PM 76.0°F24.4°C 53.1°F11.7°C 45% 1.0 mph E1.6 kmh E 2.0 mph3.2 kmh 29.95 in1014.2 mb - 0.00 in0.0 mm 0.00 in0.0 mm
07:40 PM 77.0°F25.0°C 52.1°F11.2°C 42% 1.9 mph E3.1 kmh E 2.0 mph3.2 kmh 29.95 in1014.2 mb - 0.00 in0.0 mm 0.00 in0.0 mm
07:30 PM 77.5°F25.3°C 51.9°F11.1°C 41% 2.3 mph E3.7 kmh E 3.0 mph4.8 kmh 29.95 in1014.2 mb - 0.00 in0.0 mm 0.00 in0.0 mm
07:20 PM 78.0°F25.6°C 52.4°F11.3°C 41% 3.0 mph E4.8 kmh E 3.0 mph4.8 kmh 29.95 in1014.2 mb - 0.00 in0.0 mm 0.00 in0.0 mm
07:10 PM 78.3°F25.7°C 52.0°F11.1°C 40% 4.2 mph E6.8 kmh E 5.0 mph8.0 kmh 29.95 in1014.2 mb - 0.00 in0.0 mm 0.00 in0.0 mm
07:00 PM 78.9°F26.1°C 51.1°F10.6°C 38% 5.0 mph E8.0 kmh E 5.0 mph8.0 kmh 29.95 in1014.2 mb - 0.00 in0.0 mm 0.00 in0.0 mm
06:50 PM 79.0°F26.1°C 51.9°F11.1°C 39% 3.4 mph E5.5 kmh E 6.0 mph9.7 kmh 29.95 in1014.2 mb - 0.00 in0.0 mm 0.00 in0.0 mm
06:40 PM 78.9°F26.1°C 51.2°F10.7°C 38% 4.6 mph E7.4 kmh E 6.0 mph9.7 kmh 29.95 in1014.2 mb - 0.00 in0.0 mm 0.00 in0.0 mm
06:30 PM 79.3°F26.3°C 50.0°F10.0°C 36% 5.8 mph ENE9.3 kmh ENE 6.0 mph9.7 kmh 29.95 in1014.2 mb - 0.00 in0.0 mm 0.00 in0.0 mm
06:20 PM 79.9°F26.6°C 49.8°F9.9°C 35% 3.0 mph E4.8 kmh E 4.0 mph6.4 kmh 29.96 in1014.6 mb - 0.00 in0.0 mm 0.00 in0.0 mm
06:10 PM 80.4°F26.9°C 48.7°F9.3°C 33% 4.6 mph ESE7.4 kmh ESE 7.0 mph11.3 kmh 29.96 in1014.6 mb - 0.00 in0.0 mm 0.00 in0.0 mm
02:30 PM 81.1°F27.3°C 49.2°F9.6°C 33% 2.5 mph ESE4.0 kmh ESE 7.0 mph11.3 kmh 30.02 in1016.6 mb - 0.00 in0.0 mm 0.00 in0.0 mm
02:20 PM 80.4°F26.9°C 49.4°F9.7°C 34% 1.4 mph NE2.3 kmh NE 2.0 mph3.2 kmh 30.03 in1016.9 mb - 0.00 in0.0 mm 0.00 in0.0 mm
02:10 PM 80.8°F27.1°C 48.2°F9.0°C 32% 5.0 mph SW8.0 kmh SW 6.0 mph9.7 kmh 30.03 in1016.9 mb - 0.00 in0.0 mm 0.00 in0.0 mm
02:00 PM 80.5°F26.9°C 49.5°F9.7°C 34% 1.3 mph SW2.1 kmh SW 1.0 mph1.6 kmh 30.03 in1016.9 mb - 0.00 in0.0 mm 0.00 in0.0 mm
01:50 PM 79.9°F26.6°C 49.1°F9.5°C 34% 4.3 mph E6.9 kmh E 7.0 mph11.3 kmh 30.03 in1016.9 mb - 0.00 in0.0 mm 0.00 in0.0 mm
01:40 PM 80.8°F27.1°C 50.6°F10.3°C 35% 1.1 mph S1.8 kmh S 3.0 mph4.8 kmh 30.04 in1017.3 mb - 0.00 in0.0 mm 0.00 in0.0 mm
01:30 PM 80.0°F26.7°C 49.1°F9.5°C 34% 1.8 mph SW2.9 kmh SW 3.0 mph4.8 kmh 30.04 in1017.3 mb - 0.00 in0.0 mm 0.00 in0.0 mm
01:20 PM 79.2°F26.2°C 49.9°F9.9°C 36% 5.1 mph SW8.2 kmh SW 6.0 mph9.7 kmh 30.04 in1017.3 mb - 0.00 in0.0 mm 0.00 in0.0 mm
01:10 PM 78.7°F25.9°C 49.5°F9.7°C 36% 2.8 mph SE4.5 kmh SE 6.0 mph9.7 kmh 30.04 in1017.3 mb - 0.00 in0.0 mm 0.00 in0.0 mm
01:00 PM 78.6°F25.9°C 50.1°F10.1°C 37% 1.9 mph WNW3.1 kmh WNW 3.0 mph4.8 kmh 30.05 in1017.6 mb - 0.00 in0.0 mm 0.00 in0.0 mm
12:50 PM 78.0°F25.6°C 51.7°F10.9°C 40% 0.6 mph WSW1.0 kmh WSW 1.0 mph1.6 kmh 30.05 in1017.6 mb - 0.00 in0.0 mm 0.00 in0.0 mm
12:40 PM 78.5°F25.8°C 48.6°F9.2°C 35% 6.1 mph SW9.8 kmh SW 8.0 mph12.9 kmh 30.05 in1017.6 mb - 0.00 in0.0 mm 0.00 in0.0 mm
12:30 PM 78.1°F25.6°C 51.8°F11.0°C 40% 2.3 mph SW3.7 kmh SW 5.0 mph8.0 kmh 30.05 in1017.6 mb - 0.00 in0.0 mm 0.00 in0.0 mm
12:20 PM 78.1°F25.6°C 51.8°F11.0°C 40% 2.0 mph SSW3.2 kmh SSW 3.0 mph4.8 kmh 30.06 in1017.9 mb - 0.00 in0.0 mm 0.00 in0.0 mm
12:10 PM 77.6°F25.3°C 51.4°F10.8°C 40% 2.9 mph S4.7 kmh S 5.0 mph8.0 kmh 30.06 in1017.9 mb - 0.00 in0.0 mm 0.00 in0.0 mm
12:00 PM 77.4°F25.2°C 51.1°F10.6°C 40% 3.4 mph SE5.5 kmh SE 7.0 mph11.3 kmh 30.07 in1018.3 mb - 0.00 in0.0 mm 0.00 in0.0 mm
11:50 AM 76.7°F24.8°C 51.2°F10.7°C 41% 1.2 mph SW1.9 kmh SW 3.0 mph4.8 kmh 30.07 in1018.3 mb - 0.00 in0.0 mm 0.00 in0.0 mm
11:40 AM 76.0°F24.4°C 51.9°F11.1°C 43% 1.6 mph S2.6 kmh S 4.0 mph6.4 kmh 30.07 in1018.3 mb - 0.00 in0.0 mm 0.00 in0.0 mm
11:30 AM 73.9°F23.3°C 51.2°F10.7°C 45% 1.1 mph WSW1.8 kmh WSW 2.0 mph3.2 kmh 30.07 in1018.3 mb - 0.00 in0.0 mm 0.00 in0.0 mm
11:20 AM 75.3°F24.1°C 53.7°F12.1°C 47% 2.3 mph E3.7 kmh E 6.0 mph9.7 kmh 30.07 in1018.3 mb - 0.00 in0.0 mm 0.00 in0.0 mm
11:10 AM 75.1°F23.9°C 52.3°F11.3°C 45% 1.5 mph SW2.4 kmh SW 2.0 mph3.2 kmh 30.07 in1018.3 mb - 0.00 in0.0 mm 0.00 in0.0 mm
11:00 AM 74.8°F23.8°C 53.3°F11.8°C 47% 1.9 mph SE3.1 kmh SE 4.0 mph6.4 kmh 30.07 in1018.3 mb - 0.00 in0.0 mm 0.00 in0.0 mm
10:50 AM 73.6°F23.1°C 52.7°F11.5°C 48% 3.1 mph SSW5.0 kmh SSW 6.0 mph9.7 kmh 30.07 in1018.3 mb - 0.00 in0.0 mm 0.00 in0.0 mm
10:40 AM 73.6°F23.1°C 52.7°F11.5°C 48% 2.5 mph SSW4.0 kmh SSW 4.0 mph6.4 kmh 30.08 in1018.6 mb - 0.00 in0.0 mm 0.00 in0.0 mm
10:30 AM 74.1°F23.4°C 54.3°F12.4°C 50% 3.7 mph ESE6.0 kmh ESE 6.0 mph9.7 kmh 30.08 in1018.6 mb - 0.00 in0.0 mm 0.00 in0.0 mm
10:20 AM 73.3°F22.9°C 54.6°F12.6°C 52% 2.4 mph ESE3.9 kmh ESE 3.0 mph4.8 kmh 30.08 in1018.6 mb - 0.00 in0.0 mm 0.00 in0.0 mm
10:10 AM 72.9°F22.7°C 54.2°F12.3°C 52% 2.4 mph ESE3.9 kmh ESE 3.0 mph4.8 kmh 30.08 in1018.6 mb - 0.00 in0.0 mm 0.00 in0.0 mm
10:00 AM 72.2°F22.3°C 55.1°F12.8°C 55% 2.7 mph SSE4.3 kmh SSE 7.0 mph11.3 kmh 30.08 in1018.6 mb - 0.00 in0.0 mm 0.00 in0.0 mm
09:50 AM 71.5°F21.9°C 55.0°F12.8°C 56% 1.0 mph WSW1.6 kmh WSW 2.0 mph3.2 kmh 30.08 in1018.6 mb - 0.00 in0.0 mm 0.00 in0.0 mm
09:40 AM 70.8°F21.6°C 55.8°F13.2°C 59% 1.1 mph SSE1.8 kmh SSE 2.0 mph3.2 kmh 30.08 in1018.6 mb - 0.00 in0.0 mm 0.00 in0.0 mm
09:30 AM 69.9°F21.1°C 55.8°F13.2°C 61% 0.5 mph SSW0.8 kmh SSW 2.0 mph3.2 kmh 30.08 in1018.6 mb - 0.00 in0.0 mm 0.00 in0.0 mm
09:20 AM 68.1°F20.1°C 55.0°F12.8°C 63% 0.9 mph SW1.4 kmh SW 2.0 mph3.2 kmh 30.08 in1018.6 mb - 0.00 in0.0 mm 0.00 in0.0 mm
09:10 AM 68.1°F20.1°C 55.1°F12.8°C 63% 0.6 mph W1.0 kmh W 1.0 mph1.6 kmh 30.08 in1018.6 mb - 0.00 in0.0 mm 0.00 in0.0 mm
09:00 AM 67.8°F19.9°C 56.0°F13.3°C 66% 1.0 mph E1.6 kmh E 2.0 mph3.2 kmh 30.08 in1018.6 mb - 0.00 in0.0 mm 0.00 in0.0 mm
08:50 AM 66.8°F19.3°C 55.1°F12.8°C 66% 1.0 mph N1.6 kmh N 1.0 mph1.6 kmh 30.08 in1018.6 mb - 0.00 in0.0 mm 0.00 in0.0 mm
08:40 AM 66.6°F19.2°C 54.9°F12.7°C 66% 2.0 mph ESE3.2 kmh ESE 2.0 mph3.2 kmh 30.08 in1018.6 mb - 0.00 in0.0 mm 0.00 in0.0 mm
08:30 AM 66.2°F19.0°C 55.3°F12.9°C 68% 0.2 mph N0.3 kmh N 1.0 mph1.6 kmh 30.08 in1018.6 mb - 0.00 in0.0 mm 0.00 in0.0 mm
08:20 AM 65.2°F18.4°C 54.4°F12.4°C 68% 0.4 mph N0.6 kmh N 1.0 mph1.6 kmh 30.09 in1019.0 mb - 0.00 in0.0 mm 0.00 in0.0 mm
08:10 AM 65.2°F18.4°C 55.1°F12.8°C 70% 0.3 mph W0.5 kmh W 1.0 mph1.6 kmh 30.09 in1019.0 mb - 0.00 in0.0 mm 0.00 in0.0 mm
08:00 AM 63.9°F17.7°C 55.1°F12.8°C 73% Calm Calm -- 30.08 in1018.6 mb - 0.00 in0.0 mm 0.00 in0.0 mm
07:50 AM 62.8°F17.1°C 54.4°F12.4°C 74% Calm Calm -- 30.08 in1018.6 mb - 0.00 in0.0 mm 0.00 in0.0 mm
07:40 AM 61.6°F16.4°C 53.9°F12.2°C 76% Calm Calm -- 30.08 in1018.6 mb - 0.00 in0.0 mm 0.00 in0.0 mm
07:30 AM 59.0°F15.0°C 53.5°F11.9°C 82% Calm Calm 1.0 mph1.6 kmh 30.08 in1018.6 mb - 0.00 in0.0 mm 0.00 in0.0 mm
07:20 AM 56.2°F13.4°C 52.7°F11.5°C 88% Calm Calm -- 30.08 in1018.6 mb - 0.00 in0.0 mm 0.00 in0.0 mm
07:10 AM 54.5°F12.5°C 50.7°F10.4°C 87% Calm Calm 1.0 mph1.6 kmh 30.08 in1018.6 mb - 0.00 in0.0 mm 0.00 in0.0 mm
07:00 AM 54.8°F12.7°C 51.0°F10.6°C 87% Calm Calm -- 30.08 in1018.6 mb - 0.00 in0.0 mm 0.00 in0.0 mm
06:50 AM 54.0°F12.2°C 50.2°F10.1°C 87% Calm Calm -- 30.07 in1018.3 mb - 0.00 in0.0 mm 0.00 in0.0 mm
06:40 AM 53.0°F11.7°C 49.5°F9.7°C 88% Calm Calm -- 30.07 in1018.3 mb - 0.00 in0.0 mm 0.00 in0.0 mm
06:30 AM 53.1°F11.7°C 50.0°F10.0°C 89% Calm Calm -- 30.07 in1018.3 mb - 0.00 in0.0 mm 0.00 in0.0 mm
06:20 AM 52.0°F11.1°C 49.5°F9.7°C 91% Calm Calm -- 30.07 in1018.3 mb - 0.00 in0.0 mm 0.00 in0.0 mm
06:10 AM 51.1°F10.6°C 49.1°F9.5°C 93% Calm Calm -- 30.07 in1018.3 mb - 0.00 in0.0 mm 0.00 in0.0 mm
06:00 AM 50.2°F10.1°C 48.6°F9.2°C 94% Calm Calm -- 30.06 in1017.9 mb - 0.00 in0.0 mm 0.00 in0.0 mm
05:50 AM 48.9°F9.4°C 47.2°F8.4°C 94% Calm Calm -- 30.06 in1017.9 mb - 0.00 in0.0 mm 0.00 in0.0 mm
05:40 AM 48.2°F9.0°C 46.6°F8.1°C 94% Calm Calm -- 30.06 in1017.9 mb - 0.00 in0.0 mm 0.00 in0.0 mm
05:30 AM 48.1°F8.9°C 46.4°F8.0°C 94% Calm Calm -- 30.06 in1017.9 mb - 0.00 in0.0 mm 0.00 in0.0 mm
05:20 AM 47.9°F8.8°C 46.3°F7.9°C 94% Calm Calm 1.0 mph1.6 kmh 30.06 in1017.9 mb - 0.00 in0.0 mm 0.00 in0.0 mm
05:10 AM 47.8°F8.8°C 46.1°F7.8°C 94% Calm Calm -- 30.06 in1017.9 mb - 0.00 in0.0 mm 0.00 in0.0 mm
05:00 AM 47.8°F8.8°C 45.8°F7.7°C 93% Calm Calm -- 30.06 in1017.9 mb - 0.00 in0.0 mm 0.00 in0.0 mm
04:50 AM 47.9°F8.8°C 46.0°F7.8°C 93% Calm Calm -- 30.06 in1017.9 mb - 0.00 in0.0 mm 0.00 in0.0 mm
04:40 AM 48.1°F8.9°C 46.2°F7.9°C 93% Calm Calm -- 30.06 in1017.9 mb - 0.00 in0.0 mm 0.00 in0.0 mm
04:30 AM 48.3°F9.1°C 46.4°F8.0°C 93% Calm Calm -- 30.05 in1017.6 mb - 0.00 in0.0 mm 0.00 in0.0 mm
04:20 AM 48.5°F9.2°C 46.6°F8.1°C 93% Calm Calm -- 30.05 in1017.6 mb - 0.00 in0.0 mm 0.00 in0.0 mm
04:10 AM 48.6°F9.2°C 46.7°F8.2°C 93% Calm Calm -- 30.05 in1017.6 mb - 0.00 in0.0 mm 0.00 in0.0 mm
04:00 AM 48.8°F9.3°C 46.8°F8.2°C 93% Calm Calm -- 30.05 in1017.6 mb - 0.00 in0.0 mm 0.00 in0.0 mm
03:50 AM 48.9°F9.4°C 47.0°F8.3°C 93% Calm Calm -- 30.05 in1017.6 mb - 0.00 in0.0 mm 0.00 in0.0 mm
03:40 AM 49.0°F9.4°C 46.8°F8.2°C 92% Calm Calm -- 30.05 in1017.6 mb - 0.00 in0.0 mm 0.00 in0.0 mm
03:30 AM 49.5°F9.7°C 47.2°F8.4°C 92% Calm Calm -- 30.05 in1017.6 mb - 0.00 in0.0 mm 0.00 in0.0 mm
03:20 AM 49.7°F9.8°C 47.5°F8.6°C 92% Calm Calm -- 30.05 in1017.6 mb - 0.00 in0.0 mm 0.00 in0.0 mm
03:10 AM 49.8°F9.9°C 47.5°F8.6°C 92% Calm Calm -- 30.05 in1017.6 mb - 0.00 in0.0 mm 0.00 in0.0 mm
03:00 AM 49.9°F9.9°C 47.7°F8.7°C 92% Calm Calm -- 30.05 in1017.6 mb - 0.00 in0.0 mm 0.00 in0.0 mm
02:50 AM 50.1°F10.1°C 47.9°F8.8°C 92% Calm Calm -- 30.05 in1017.6 mb - 0.00 in0.0 mm 0.00 in0.0 mm
02:40 AM 50.3°F10.2°C 48.1°F8.9°C 92% Calm Calm -- 30.05 in1017.6 mb - 0.00 in0.0 mm 0.00 in0.0 mm
02:30 AM 50.4°F10.2°C 47.9°F8.8°C 91% Calm Calm -- 30.05 in1017.6 mb - 0.00 in0.0 mm 0.00 in0.0 mm
02:20 AM 50.8°F10.4°C 48.2°F9.0°C 91% Calm Calm -- 30.05 in1017.6 mb - 0.00 in0.0 mm 0.00 in0.0 mm
02:10 AM 51.2°F10.7°C 48.6°F9.2°C 91% Calm Calm -- 30.05 in1017.6 mb - 0.00 in0.0 mm 0.00 in0.0 mm
02:00 AM 51.4°F10.8°C 48.9°F9.4°C 91% Calm Calm -- 30.05 in1017.6 mb - 0.00 in0.0 mm 0.00 in0.0 mm
01:50 AM 51.6°F10.9°C 48.7°F9.3°C 90% Calm Calm 1.0 mph1.6 kmh 30.05 in1017.6 mb - 0.00 in0.0 mm 0.00 in0.0 mm
01:40 AM 51.7°F10.9°C 48.9°F9.4°C 90% 0.6 mph W1.0 kmh W 1.0 mph1.6 kmh 30.04 in1017.3 mb - 0.00 in0.0 mm 0.00 in0.0 mm
01:30 AM 52.2°F11.2°C 49.1°F9.5°C 89% Calm Calm 1.0 mph1.6 kmh 30.04 in1017.3 mb - 0.00 in0.0 mm 0.00 in0.0 mm
01:20 AM 52.4°F11.3°C 49.3°F9.6°C 89% Calm Calm -- 30.04 in1017.3 mb - 0.00 in0.0 mm 0.00 in0.0 mm
01:10 AM 52.6°F11.4°C 49.4°F9.7°C 89% Calm Calm -- 30.04 in1017.3 mb - 0.00 in0.0 mm 0.00 in0.0 mm
01:00 AM 52.6°F11.4°C 49.4°F9.7°C 89% Calm Calm 1.0 mph1.6 kmh 30.04 in1017.3 mb - 0.00 in0.0 mm 0.00 in0.0 mm
12:50 AM 52.8°F11.6°C 49.6°F9.8°C 89% Calm Calm -- 30.04 in1017.3 mb - 0.00 in0.0 mm 0.00 in0.0 mm
12:40 AM 53.1°F11.7°C 49.6°F9.8°C 88% Calm Calm -- 30.04 in1017.3 mb - 0.00 in0.0 mm 0.00 in0.0 mm
12:30 AM 53.2°F11.8°C 49.7°F9.8°C 88% Calm Calm -- 30.04 in1017.3 mb - 0.00 in0.0 mm 0.00 in0.0 mm
12:20 AM 53.5°F11.9°C 50.0°F10.0°C 88% Calm Calm -- 30.04 in1017.3 mb - 0.00 in0.0 mm 0.00 in0.0 mm
12:10 AM 54.0°F12.2°C 49.9°F9.9°C 86% Calm Calm -- 30.04 in1017.3 mb - 0.00 in0.0 mm 0.00 in0.0 mm
12:00 AM 54.5°F12.5°C 50.4°F10.2°C 86% Calm Calm -- 30.04 in1017.3 mb - 0.00 in0.0 mm 0.00 in0.0 mm